sensor_id;sensor_type;location;lat;lon;timestamp;temperature;humidity
23237;DHT22;11787;52.018;8.570;2022-08-21T00:01:26;17.20;99.90
23237;DHT22;11787;52.018;8.570;2022-08-21T00:03:52;17.20;99.90
23237;DHT22;11787;52.018;8.570;2022-08-21T00:06:18;17.10;99.90
23237;DHT22;11787;52.018;8.570;2022-08-21T00:08:44;17.10;99.90
23237;DHT22;11787;52.018;8.570;2022-08-21T00:11:10;17.10;99.90
23237;DHT22;11787;52.018;8.570;2022-08-21T00:13:36;17.20;99.90
23237;DHT22;11787;52.018;8.570;2022-08-21T00:16:02;17.20;99.90
23237;DHT22;11787;52.018;8.570;2022-08-21T00:18:27;17.20;99.90
23237;DHT22;11787;52.018;8.570;2022-08-21T00:20:53;17.20;99.90
23237;DHT22;11787;52.018;8.570;2022-08-21T00:23:19;17.20;99.90
23237;DHT22;11787;52.018;8.570;2022-08-21T00:25:44;17.20;99.90
23237;DHT22;11787;52.018;8.570;2022-08-21T00:28:10;17.20;99.90
23237;DHT22;11787;52.018;8.570;2022-08-21T00:30:36;17.20;99.90
23237;DHT22;11787;52.018;8.570;2022-08-21T00:33:02;17.20;99.90
23237;DHT22;11787;52.018;8.570;2022-08-21T00:35:31;17.20;99.90
23237;DHT22;11787;52.018;8.570;2022-08-21T00:37:57;17.20;99.90
23237;DHT22;11787;52.018;8.570;2022-08-21T00:40:33;17.20;99.90
23237;DHT22;11787;52.018;8.570;2022-08-21T00:43:00;17.10;99.90
23237;DHT22;11787;52.018;8.570;2022-08-21T00:45:27;17.00;99.90
23237;DHT22;11787;52.018;8.570;2022-08-21T00:47:53;17.00;99.90
23237;DHT22;11787;52.018;8.570;2022-08-21T00:50:20;17.00;99.90
23237;DHT22;11787;52.018;8.570;2022-08-21T00:52:46;17.00;99.90
23237;DHT22;11787;52.018;8.570;2022-08-21T00:55:11;17.00;99.90
23237;DHT22;11787;52.018;8.570;2022-08-21T00:57:39;16.90;99.90
23237;DHT22;11787;52.018;8.570;2022-08-21T01:00:07;16.90;99.90
23237;DHT22;11787;52.018;8.570;2022-08-21T01:02:34;16.80;99.90
23237;DHT22;11787;52.018;8.570;2022-08-21T01:04:59;16.80;99.90
23237;DHT22;11787;52.018;8.570;2022-08-21T01:07:25;16.80;99.90
23237;DHT22;11787;52.018;8.570;2022-08-21T01:09:50;16.80;99.90
23237;DHT22;11787;52.018;8.570;2022-08-21T01:12:17;16.70;99.90
23237;DHT22;11787;52.018;8.570;2022-08-21T01:14:42;16.70;99.90
23237;DHT22;11787;52.018;8.570;2022-08-21T01:17:08;16.70;99.90
23237;DHT22;11787;52.018;8.570;2022-08-21T01:19:35;16.60;99.90
23237;DHT22;11787;52.018;8.570;2022-08-21T01:22:01;16.60;99.90
23237;DHT22;11787;52.018;8.570;2022-08-21T01:24:26;16.60;99.90
23237;DHT22;11787;52.018;8.570;2022-08-21T01:26:52;16.40;99.90
23237;DHT22;11787;52.018;8.570;2022-08-21T01:31:52;16.40;99.90
23237;DHT22;11787;52.018;8.570;2022-08-21T01:34:18;16.40;99.90
23237;DHT22;11787;52.018;8.570;2022-08-21T01:36:44;16.50;99.90
23237;DHT22;11787;52.018;8.570;2022-08-21T01:39:10;16.50;99.90
23237;DHT22;11787;52.018;8.570;2022-08-21T01:41:35;16.60;99.90
23237;DHT22;11787;52.018;8.570;2022-08-21T01:44:01;16.50;99.90
23237;DHT22;11787;52.018;8.570;2022-08-21T01:46:27;16.40;99.90
23237;DHT22;11787;52.018;8.570;2022-08-21T01:48:52;16.40;99.90
23237;DHT22;11787;52.018;8.570;2022-08-21T01:51:18;16.40;99.90
23237;DHT22;11787;52.018;8.570;2022-08-21T01:53:43;16.40;99.90
23237;DHT22;11787;52.018;8.570;2022-08-21T01:56:10;16.50;99.90
23237;DHT22;11787;52.018;8.570;2022-08-21T01:58:35;16.50;99.90
23237;DHT22;11787;52.018;8.570;2022-08-21T02:01:01;16.50;99.90
23237;DHT22;11787;52.018;8.570;2022-08-21T02:03:28;16.40;99.90
23237;DHT22;11787;52.018;8.570;2022-08-21T02:05:54;16.40;99.90
23237;DHT22;11787;52.018;8.570;2022-08-21T02:08:19;16.50;99.90
23237;DHT22;11787;52.018;8.570;2022-08-21T02:10:48;16.50;99.90
23237;DHT22;11787;52.018;8.570;2022-08-21T02:13:14;16.50;99.90
23237;DHT22;11787;52.018;8.570;2022-08-21T02:15:40;16.40;99.90
23237;DHT22;11787;52.018;8.570;2022-08-21T02:18:05;16.40;99.90
23237;DHT22;11787;52.018;8.570;2022-08-21T02:20:33;16.50;99.90
23237;DHT22;11787;52.018;8.570;2022-08-21T02:22:59;16.50;99.90
23237;DHT22;11787;52.018;8.570;2022-08-21T02:25:26;16.40;99.90
23237;DHT22;11787;52.018;8.570;2022-08-21T02:27:52;16.40;99.90
23237;DHT22;11787;52.018;8.570;2022-08-21T02:30:19;16.50;99.90
23237;DHT22;11787;52.018;8.570;2022-08-21T02:32:45;16.50;99.90
23237;DHT22;11787;52.018;8.570;2022-08-21T02:35:11;16.40;99.90
23237;DHT22;11787;52.018;8.570;2022-08-21T02:40:12;16.50;99.90
23237;DHT22;11787;52.018;8.570;2022-08-21T02:42:37;16.50;99.90
23237;DHT22;11787;52.018;8.570;2022-08-21T02:45:05;16.50;99.90
23237;DHT22;11787;52.018;8.570;2022-08-21T02:47:31;16.50;99.90
23237;DHT22;11787;52.018;8.570;2022-08-21T02:49:56;16.50;99.90
23237;DHT22;11787;52.018;8.570;2022-08-21T02:52:22;16.50;99.90
23237;DHT22;11787;52.018;8.570;2022-08-21T02:54:49;16.40;99.90
23237;DHT22;11787;52.018;8.570;2022-08-21T02:57:14;16.40;99.90
23237;DHT22;11787;52.018;8.570;2022-08-21T02:59:40;16.40;99.90
23237;DHT22;11787;52.018;8.570;2022-08-21T03:02:06;16.20;99.90
23237;DHT22;11787;52.018;8.570;2022-08-21T03:04:31;16.30;99.90
23237;DHT22;11787;52.018;8.570;2022-08-21T03:06:57;16.20;99.90
23237;DHT22;11787;52.018;8.570;2022-08-21T03:09:23;16.20;99.90
23237;DHT22;11787;52.018;8.570;2022-08-21T03:11:49;16.20;99.90
23237;DHT22;11787;52.018;8.570;2022-08-21T03:14:15;16.20;99.90
23237;DHT22;11787;52.018;8.570;2022-08-21T03:16:41;16.20;99.90
23237;DHT22;11787;52.018;8.570;2022-08-21T03:19:07;16.30;99.90
23237;DHT22;11787;52.018;8.570;2022-08-21T03:21:33;16.20;99.90
23237;DHT22;11787;52.018;8.570;2022-08-21T03:23:58;16.10;99.90
23237;DHT22;11787;52.018;8.570;2022-08-21T03:26:24;16.10;99.90
23237;DHT22;11787;52.018;8.570;2022-08-21T03:28:50;16.10;99.90
23237;DHT22;11787;52.018;8.570;2022-08-21T03:31:16;16.20;99.90
23237;DHT22;11787;52.018;8.570;2022-08-21T03:33:43;16.20;99.90
23237;DHT22;11787;52.018;8.570;2022-08-21T03:36:08;16.20;99.90
23237;DHT22;11787;52.018;8.570;2022-08-21T03:38:35;16.20;99.90
23237;DHT22;11787;52.018;8.570;2022-08-21T03:41:01;16.30;99.90
23237;DHT22;11787;52.018;8.570;2022-08-21T03:43:27;16.40;99.90
23237;DHT22;11787;52.018;8.570;2022-08-21T03:45:53;16.40;99.90
23237;DHT22;11787;52.018;8.570;2022-08-21T03:48:18;16.50;99.90
23237;DHT22;11787;52.018;8.570;2022-08-21T03:50:44;16.60;99.90
23237;DHT22;11787;52.018;8.570;2022-08-21T03:53:12;16.60;99.90
23237;DHT22;11787;52.018;8.570;2022-08-21T03:55:38;16.70;99.90
23237;DHT22;11787;52.018;8.570;2022-08-21T03:58:03;16.70;99.90
23237;DHT22;11787;52.018;8.570;2022-08-21T04:00:29;16.70;99.90
23237;DHT22;11787;52.018;8.570;2022-08-21T04:02:55;16.80;99.90
23237;DHT22;11787;52.018;8.570;2022-08-21T04:05:20;16.80;99.90
23237;DHT22;11787;52.018;8.570;2022-08-21T04:10:20;16.70;99.90
23237;DHT22;11787;52.018;8.570;2022-08-21T04:12:46;16.70;99.90
23237;DHT22;11787;52.018;8.570;2022-08-21T04:15:11;16.70;99.90
23237;DHT22;11787;52.018;8.570;2022-08-21T04:17:38;16.70;99.90
23237;DHT22;11787;52.018;8.570;2022-08-21T04:20:03;16.60;99.90
23237;DHT22;11787;52.018;8.570;2022-08-21T04:22:29;16.60;99.90
23237;DHT22;11787;52.018;8.570;2022-08-21T04:24:54;16.60;99.90
23237;DHT22;11787;52.018;8.570;2022-08-21T04:27:20;16.50;99.90
23237;DHT22;11787;52.018;8.570;2022-08-21T04:29:45;16.50;99.90
23237;DHT22;11787;52.018;8.570;2022-08-21T04:32:11;16.40;99.90
23237;DHT22;11787;52.018;8.570;2022-08-21T04:34:36;16.40;99.90
23237;DHT22;11787;52.018;8.570;2022-08-21T04:37:02;16.40;99.90
23237;DHT22;11787;52.018;8.570;2022-08-21T04:39:28;16.40;99.90
23237;DHT22;11787;52.018;8.570;2022-08-21T04:41:53;16.40;99.90
23237;DHT22;11787;52.018;8.570;2022-08-21T04:44:19;16.40;99.90
23237;DHT22;11787;52.018;8.570;2022-08-21T04:46:44;16.30;99.90
23237;DHT22;11787;52.018;8.570;2022-08-21T04:49:09;16.30;99.90
23237;DHT22;11787;52.018;8.570;2022-08-21T04:51:35;16.30;99.90
23237;DHT22;11787;52.018;8.570;2022-08-21T04:54:05;16.40;99.90
23237;DHT22;11787;52.018;8.570;2022-08-21T04:56:35;16.40;99.90
23237;DHT22;11787;52.018;8.570;2022-08-21T04:59:04;16.40;99.90
23237;DHT22;11787;52.018;8.570;2022-08-21T05:01:32;16.40;99.90
23237;DHT22;11787;52.018;8.570;2022-08-21T05:03:59;16.30;99.90
23237;DHT22;11787;52.018;8.570;2022-08-21T05:06:28;16.30;99.90
23237;DHT22;11787;52.018;8.570;2022-08-21T05:08:54;16.30;99.90
23237;DHT22;11787;52.018;8.570;2022-08-21T05:11:20;16.30;99.90
23237;DHT22;11787;52.018;8.570;2022-08-21T05:13:47;16.30;99.90
23237;DHT22;11787;52.018;8.570;2022-08-21T05:16:13;16.30;99.90
23237;DHT22;11787;52.018;8.570;2022-08-21T05:18:39;16.20;99.90
23237;DHT22;11787;52.018;8.570;2022-08-21T05:21:04;16.20;99.90
23237;DHT22;11787;52.018;8.570;2022-08-21T05:23:30;16.30;99.90
23237;DHT22;11787;52.018;8.570;2022-08-21T05:25:55;16.30;99.90
23237;DHT22;11787;52.018;8.570;2022-08-21T05:28:21;16.30;99.90
23237;DHT22;11787;52.018;8.570;2022-08-21T05:30:46;16.30;99.90
23237;DHT22;11787;52.018;8.570;2022-08-21T05:33:12;16.40;99.90
23237;DHT22;11787;52.018;8.570;2022-08-21T05:35:38;16.40;99.90
23237;DHT22;11787;52.018;8.570;2022-08-21T05:38:04;16.50;99.90
23237;DHT22;11787;52.018;8.570;2022-08-21T05:40:29;16.60;99.90
23237;DHT22;11787;52.018;8.570;2022-08-21T05:42:55;16.60;99.90
23237;DHT22;11787;52.018;8.570;2022-08-21T05:45:21;16.70;99.90
23237;DHT22;11787;52.018;8.570;2022-08-21T05:47:47;16.70;99.90
23237;DHT22;11787;52.018;8.570;2022-08-21T05:50:12;16.80;99.90
23237;DHT22;11787;52.018;8.570;2022-08-21T05:52:38;16.90;99.90
23237;DHT22;11787;52.018;8.570;2022-08-21T05:55:04;17.10;99.90
23237;DHT22;11787;52.018;8.570;2022-08-21T05:57:30;17.20;99.90
23237;DHT22;11787;52.018;8.570;2022-08-21T05:59:55;17.30;99.90
23237;DHT22;11787;52.018;8.570;2022-08-21T06:02:21;17.40;99.90
23237;DHT22;11787;52.018;8.570;2022-08-21T06:04:48;17.60;99.90
23237;DHT22;11787;52.018;8.570;2022-08-21T06:07:14;17.70;99.90
23237;DHT22;11787;52.018;8.570;2022-08-21T06:09:40;17.70;99.90
23237;DHT22;11787;52.018;8.570;2022-08-21T06:12:07;17.80;99.90
23237;DHT22;11787;52.018;8.570;2022-08-21T06:14:34;17.90;99.90
23237;DHT22;11787;52.018;8.570;2022-08-21T06:17:08;17.90;99.90
23237;DHT22;11787;52.018;8.570;2022-08-21T06:19:35;18.00;99.90
23237;DHT22;11787;52.018;8.570;2022-08-21T06:22:01;18.20;99.90
23237;DHT22;11787;52.018;8.570;2022-08-21T06:24:27;18.30;99.90
23237;DHT22;11787;52.018;8.570;2022-08-21T06:26:53;18.30;99.90
23237;DHT22;11787;52.018;8.570;2022-08-21T06:29:19;18.30;99.90
23237;DHT22;11787;52.018;8.570;2022-08-21T06:31:47;18.40;99.90
23237;DHT22;11787;52.018;8.570;2022-08-21T06:34:13;18.50;99.90
23237;DHT22;11787;52.018;8.570;2022-08-21T06:36:38;18.60;99.90
23237;DHT22;11787;52.018;8.570;2022-08-21T06:39:04;18.70;99.90
23237;DHT22;11787;52.018;8.570;2022-08-21T06:41:30;18.80;99.90
23237;DHT22;11787;52.018;8.570;2022-08-21T06:43:56;18.70;99.90
23237;DHT22;11787;52.018;8.570;2022-08-21T06:46:22;18.80;99.90
23237;DHT22;11787;52.018;8.570;2022-08-21T06:48:48;18.90;99.90
23237;DHT22;11787;52.018;8.570;2022-08-21T06:51:14;19.00;99.90
23237;DHT22;11787;52.018;8.570;2022-08-21T06:53:40;19.00;99.90
23237;DHT22;11787;52.018;8.570;2022-08-21T06:56:06;19.00;99.90
23237;DHT22;11787;52.018;8.570;2022-08-21T06:58:31;19.10;99.90
23237;DHT22;11787;52.018;8.570;2022-08-21T07:00:57;19.20;99.90
23237;DHT22;11787;52.018;8.570;2022-08-21T07:03:26;19.20;99.90
23237;DHT22;11787;52.018;8.570;2022-08-21T07:05:53;19.30;99.90
23237;DHT22;11787;52.018;8.570;2022-08-21T07:08:19;19.40;99.90
23237;DHT22;11787;52.018;8.570;2022-08-21T07:10:46;19.50;99.90
23237;DHT22;11787;52.018;8.570;2022-08-21T07:13:13;19.50;99.90
23237;DHT22;11787;52.018;8.570;2022-08-21T07:15:39;19.60;99.90
23237;DHT22;11787;52.018;8.570;2022-08-21T07:18:05;19.60;99.90
23237;DHT22;11787;52.018;8.570;2022-08-21T07:20:31;19.70;99.90
23237;DHT22;11787;52.018;8.570;2022-08-21T07:23:00;19.70;99.90
23237;DHT22;11787;52.018;8.570;2022-08-21T07:25:27;19.70;99.90
23237;DHT22;11787;52.018;8.570;2022-08-21T07:27:52;19.70;99.90
23237;DHT22;11787;52.018;8.570;2022-08-21T07:30:18;19.80;99.90
23237;DHT22;11787;52.018;8.570;2022-08-21T07:32:44;19.90;99.90
23237;DHT22;11787;52.018;8.570;2022-08-21T07:35:10;20.10;99.90
23237;DHT22;11787;52.018;8.570;2022-08-21T07:37:35;20.20;99.90
23237;DHT22;11787;52.018;8.570;2022-08-21T07:40:02;20.20;99.90
23237;DHT22;11787;52.018;8.570;2022-08-21T07:42:27;20.20;99.90
23237;DHT22;11787;52.018;8.570;2022-08-21T07:44:55;20.30;99.90
23237;DHT22;11787;52.018;8.570;2022-08-21T07:47:20;20.30;99.90
23237;DHT22;11787;52.018;8.570;2022-08-21T07:49:46;20.30;99.90
23237;DHT22;11787;52.018;8.570;2022-08-21T07:52:12;20.40;99.90
23237;DHT22;11787;52.018;8.570;2022-08-21T07:54:37;20.40;99.90
23237;DHT22;11787;52.018;8.570;2022-08-21T07:57:03;20.40;99.90
23237;DHT22;11787;52.018;8.570;2022-08-21T07:59:29;20.30;99.90
23237;DHT22;11787;52.018;8.570;2022-08-21T08:01:55;20.40;99.90
23237;DHT22;11787;52.018;8.570;2022-08-21T08:04:22;20.40;99.90
23237;DHT22;11787;52.018;8.570;2022-08-21T08:06:47;20.50;99.90
23237;DHT22;11787;52.018;8.570;2022-08-21T08:09:13;20.60;99.90
23237;DHT22;11787;52.018;8.570;2022-08-21T08:11:41;20.60;99.90
23237;DHT22;11787;52.018;8.570;2022-08-21T08:14:09;20.60;99.90
23237;DHT22;11787;52.018;8.570;2022-08-21T08:16:35;20.60;99.90
23237;DHT22;11787;52.018;8.570;2022-08-21T08:19:01;20.60;99.90
23237;DHT22;11787;52.018;8.570;2022-08-21T08:21:26;20.70;99.90
23237;DHT22;11787;52.018;8.570;2022-08-21T08:23:52;20.90;99.90
23237;DHT22;11787;52.018;8.570;2022-08-21T08:26:18;20.90;99.90
23237;DHT22;11787;52.018;8.570;2022-08-21T08:28:44;20.90;99.90
23237;DHT22;11787;52.018;8.570;2022-08-21T08:31:11;21.00;99.90
23237;DHT22;11787;52.018;8.570;2022-08-21T08:33:37;21.10;99.90
23237;DHT22;11787;52.018;8.570;2022-08-21T08:36:03;21.20;99.90
23237;DHT22;11787;52.018;8.570;2022-08-21T08:38:28;21.30;99.90
23237;DHT22;11787;52.018;8.570;2022-08-21T08:43:27;21.60;99.90
23237;DHT22;11787;52.018;8.570;2022-08-21T08:45:54;21.60;99.90
23237;DHT22;11787;52.018;8.570;2022-08-21T08:48:30;21.60;99.90
23237;DHT22;11787;52.018;8.570;2022-08-21T08:50:57;21.80;99.90
23237;DHT22;11787;52.018;8.570;2022-08-21T08:53:28;21.80;99.90
23237;DHT22;11787;52.018;8.570;2022-08-21T08:55:54;21.80;99.90
23237;DHT22;11787;52.018;8.570;2022-08-21T08:58:27;21.80;99.90
23237;DHT22;11787;52.018;8.570;2022-08-21T09:00:55;21.90;99.90
23237;DHT22;11787;52.018;8.570;2022-08-21T09:03:22;22.20;99.90
23237;DHT22;11787;52.018;8.570;2022-08-21T09:05:51;22.30;99.90
23237;DHT22;11787;52.018;8.570;2022-08-21T09:08:32;22.40;99.90
23237;DHT22;11787;52.018;8.570;2022-08-21T09:11:22;22.40;99.90
23237;DHT22;11787;52.018;8.570;2022-08-21T09:14:08;22.50;99.90
23237;DHT22;11787;52.018;8.570;2022-08-21T09:21:39;23.00;99.90
23237;DHT22;11787;52.018;8.570;2022-08-21T09:26:39;23.50;99.90
23237;DHT22;11787;52.018;8.570;2022-08-21T09:29:09;23.60;99.90
23237;DHT22;11787;52.018;8.570;2022-08-21T09:31:36;23.60;99.90
23237;DHT22;11787;52.018;8.570;2022-08-21T09:34:08;23.60;99.90
23237;DHT22;11787;52.018;8.570;2022-08-21T09:36:41;23.80;99.90
23237;DHT22;11787;52.018;8.570;2022-08-21T09:39:08;23.90;99.90
23237;DHT22;11787;52.018;8.570;2022-08-21T09:41:34;23.80;99.90
23237;DHT22;11787;52.018;8.570;2022-08-21T09:44:01;24.00;99.90
23237;DHT22;11787;52.018;8.570;2022-08-21T09:46:27;24.40;99.90
23237;DHT22;11787;52.018;8.570;2022-08-21T09:48:54;24.50;99.90
23237;DHT22;11787;52.018;8.570;2022-08-21T09:51:22;24.70;99.90
23237;DHT22;11787;52.018;8.570;2022-08-21T09:54:31;24.50;99.90
23237;DHT22;11787;52.018;8.570;2022-08-21T10:01:51;25.00;99.90
23237;DHT22;11787;52.018;8.570;2022-08-21T10:04:35;25.20;99.90
23237;DHT22;11787;52.018;8.570;2022-08-21T10:09:32;24.80;99.90
23237;DHT22;11787;52.018;8.570;2022-08-21T10:17:44;24.60;99.90
23237;DHT22;11787;52.018;8.570;2022-08-21T10:20:20;24.70;99.90
23237;DHT22;11787;52.018;8.570;2022-08-21T10:25:50;24.90;99.90
23237;DHT22;11787;52.018;8.570;2022-08-21T10:28:20;25.00;99.90
23237;DHT22;11787;52.018;8.570;2022-08-21T10:30:55;25.40;99.90
23237;DHT22;11787;52.018;8.570;2022-08-21T10:43:57;26.00;99.90
23237;DHT22;11787;52.018;8.570;2022-08-21T10:51:49;26.30;99.90
23237;DHT22;11787;52.018;8.570;2022-08-21T10:56:48;26.70;99.90
23237;DHT22;11787;52.018;8.570;2022-08-21T10:59:26;26.50;99.90
23237;DHT22;11787;52.018;8.570;2022-08-21T11:02:12;26.20;99.90
23237;DHT22;11787;52.018;8.570;2022-08-21T11:27:10;27.10;99.90
23237;DHT22;11787;52.018;8.570;2022-08-21T11:29:40;27.30;99.90
23237;DHT22;11787;52.018;8.570;2022-08-21T11:32:25;27.00;99.90
23237;DHT22;11787;52.018;8.570;2022-08-21T11:43:36;28.10;99.90
23237;DHT22;11787;52.018;8.570;2022-08-21T11:51:19;28.60;99.90
23237;DHT22;11787;52.018;8.570;2022-08-21T11:53:48;28.30;99.90
23237;DHT22;11787;52.018;8.570;2022-08-21T11:56:18;28.10;99.90
23237;DHT22;11787;52.018;8.570;2022-08-21T11:58:47;27.50;99.90
23237;DHT22;11787;52.018;8.570;2022-08-21T12:01:15;27.30;99.90
23237;DHT22;11787;52.018;8.570;2022-08-21T12:03:57;27.40;99.90
23237;DHT22;11787;52.018;8.570;2022-08-21T12:06:33;27.80;99.90
23237;DHT22;11787;52.018;8.570;2022-08-21T12:09:02;28.00;99.90
23237;DHT22;11787;52.018;8.570;2022-08-21T12:11:28;28.10;99.90
23237;DHT22;11787;52.018;8.570;2022-08-21T12:16:32;28.70;99.90
23237;DHT22;11787;52.018;8.570;2022-08-21T12:21:33;28.80;99.90
23237;DHT22;11787;52.018;8.570;2022-08-21T12:26:34;28.80;99.90
23237;DHT22;11787;52.018;8.570;2022-08-21T12:29:15;28.90;99.90
23237;DHT22;11787;52.018;8.570;2022-08-21T12:31:49;29.10;99.90
23237;DHT22;11787;52.018;8.570;2022-08-21T12:34:15;28.70;99.90
23237;DHT22;11787;52.018;8.570;2022-08-21T12:36:56;28.90;99.90
23237;DHT22;11787;52.018;8.570;2022-08-21T12:39:24;28.70;99.90
23237;DHT22;11787;52.018;8.570;2022-08-21T12:41:52;28.20;99.90
23237;DHT22;11787;52.018;8.570;2022-08-21T12:44:28;28.20;99.90
23237;DHT22;11787;52.018;8.570;2022-08-21T12:46:57;28.40;99.90
23237;DHT22;11787;52.018;8.570;2022-08-21T12:49:26;28.70;99.90
23237;DHT22;11787;52.018;8.570;2022-08-21T12:54:25;28.10;99.90
23237;DHT22;11787;52.018;8.570;2022-08-21T12:56:55;28.30;99.90
23237;DHT22;11787;52.018;8.570;2022-08-21T12:59:21;27.80;99.90
23237;DHT22;11787;52.018;8.570;2022-08-21T13:01:50;27.50;99.90
23237;DHT22;11787;52.018;8.570;2022-08-21T13:04:17;27.50;99.90
23237;DHT22;11787;52.018;8.570;2022-08-21T13:06:46;27.60;99.90
23237;DHT22;11787;52.018;8.570;2022-08-21T13:09:13;27.70;99.90
23237;DHT22;11787;52.018;8.570;2022-08-21T13:11:40;27.50;99.90
23237;DHT22;11787;52.018;8.570;2022-08-21T13:14:06;27.70;99.90
23237;DHT22;11787;52.018;8.570;2022-08-21T13:16:35;27.50;99.90
23237;DHT22;11787;52.018;8.570;2022-08-21T13:19:03;27.50;99.90
23237;DHT22;11787;52.018;8.570;2022-08-21T13:21:31;27.50;99.90
23237;DHT22;11787;52.018;8.570;2022-08-21T13:24:10;27.50;99.90
23237;DHT22;11787;52.018;8.570;2022-08-21T13:26:38;27.50;99.90
23237;DHT22;11787;52.018;8.570;2022-08-21T13:29:10;27.50;99.90
23237;DHT22;11787;52.018;8.570;2022-08-21T13:31:36;27.40;99.90
23237;DHT22;11787;52.018;8.570;2022-08-21T13:34:03;27.20;99.90
23237;DHT22;11787;52.018;8.570;2022-08-21T13:36:29;27.60;99.90
23237;DHT22;11787;52.018;8.570;2022-08-21T13:38:57;28.00;99.90
23237;DHT22;11787;52.018;8.570;2022-08-21T13:41:30;28.10;99.90
23237;DHT22;11787;52.018;8.570;2022-08-21T13:43:58;28.00;99.90
23237;DHT22;11787;52.018;8.570;2022-08-21T13:46:26;27.80;99.90
23237;DHT22;11787;52.018;8.570;2022-08-21T13:48:52;27.60;99.90
23237;DHT22;11787;52.018;8.570;2022-08-21T13:51:18;27.80;99.90
23237;DHT22;11787;52.018;8.570;2022-08-21T13:53:46;27.80;99.90
23237;DHT22;11787;52.018;8.570;2022-08-21T13:58:50;27.70;99.90
23237;DHT22;11787;52.018;8.570;2022-08-21T14:01:18;27.50;99.90
23237;DHT22;11787;52.018;8.570;2022-08-21T14:03:44;27.50;99.90
23237;DHT22;11787;52.018;8.570;2022-08-21T14:06:13;27.30;99.90
23237;DHT22;11787;52.018;8.570;2022-08-21T14:08:40;27.30;99.90
23237;DHT22;11787;52.018;8.570;2022-08-21T14:11:10;27.40;99.90
23237;DHT22;11787;52.018;8.570;2022-08-21T14:13:40;27.50;99.90
23237;DHT22;11787;52.018;8.570;2022-08-21T14:21:10;27.00;99.90
23237;DHT22;11787;52.018;8.570;2022-08-21T14:23:37;26.90;99.90
23237;DHT22;11787;52.018;8.570;2022-08-21T14:26:04;27.10;99.90
23237;DHT22;11787;52.018;8.570;2022-08-21T14:30:57;26.50;99.90
23237;DHT22;11787;52.018;8.570;2022-08-21T14:33:27;26.20;99.90
23237;DHT22;11787;52.018;8.570;2022-08-21T14:35:53;26.00;99.90
23237;DHT22;11787;52.018;8.570;2022-08-21T14:38:21;26.00;99.90
23237;DHT22;11787;52.018;8.570;2022-08-21T14:40:47;25.90;99.90
23237;DHT22;11787;52.018;8.570;2022-08-21T14:43:13;26.00;99.90
23237;DHT22;11787;52.018;8.570;2022-08-21T14:45:39;26.20;99.90
23237;DHT22;11787;52.018;8.570;2022-08-21T14:48:06;26.10;99.90
23237;DHT22;11787;52.018;8.570;2022-08-21T14:50:32;26.20;99.90
23237;DHT22;11787;52.018;8.570;2022-08-21T14:52:57;26.10;99.90
23237;DHT22;11787;52.018;8.570;2022-08-21T14:55:23;25.90;99.90
23237;DHT22;11787;52.018;8.570;2022-08-21T14:57:49;26.00;99.90
23237;DHT22;11787;52.018;8.570;2022-08-21T15:00:16;25.70;99.90
23237;DHT22;11787;52.018;8.570;2022-08-21T15:02:42;25.70;99.90
23237;DHT22;11787;52.018;8.570;2022-08-21T15:05:08;25.70;99.90
23237;DHT22;11787;52.018;8.570;2022-08-21T15:07:33;25.50;99.90
23237;DHT22;11787;52.018;8.570;2022-08-21T15:09:59;25.50;99.90
23237;DHT22;11787;52.018;8.570;2022-08-21T15:12:24;25.70;99.90
23237;DHT22;11787;52.018;8.570;2022-08-21T15:14:50;25.60;99.90
23237;DHT22;11787;52.018;8.570;2022-08-21T15:17:16;25.70;99.90
23237;DHT22;11787;52.018;8.570;2022-08-21T15:19:41;25.60;99.90
23237;DHT22;11787;52.018;8.570;2022-08-21T15:22:07;25.60;99.90
23237;DHT22;11787;52.018;8.570;2022-08-21T15:24:32;25.70;99.90
23237;DHT22;11787;52.018;8.570;2022-08-21T15:26:59;25.90;99.90
23237;DHT22;11787;52.018;8.570;2022-08-21T15:29:25;25.90;99.90
23237;DHT22;11787;52.018;8.570;2022-08-21T15:31:52;25.80;99.90
23237;DHT22;11787;52.018;8.570;2022-08-21T15:34:18;25.70;99.90
23237;DHT22;11787;52.018;8.570;2022-08-21T15:36:44;25.50;99.90
23237;DHT22;11787;52.018;8.570;2022-08-21T15:39:10;25.50;99.90
23237;DHT22;11787;52.018;8.570;2022-08-21T15:41:35;25.40;99.90
23237;DHT22;11787;52.018;8.570;2022-08-21T15:44:01;25.40;99.90
23237;DHT22;11787;52.018;8.570;2022-08-21T15:46:26;25.40;99.90
23237;DHT22;11787;52.018;8.570;2022-08-21T15:48:52;25.50;99.90
23237;DHT22;11787;52.018;8.570;2022-08-21T15:51:17;25.50;99.90
23237;DHT22;11787;52.018;8.570;2022-08-21T15:53:43;25.60;99.90
23237;DHT22;11787;52.018;8.570;2022-08-21T15:56:14;25.60;99.90
23237;DHT22;11787;52.018;8.570;2022-08-21T15:58:42;25.50;99.90
23237;DHT22;11787;52.018;8.570;2022-08-21T16:01:08;25.60;99.90
23237;DHT22;11787;52.018;8.570;2022-08-21T16:03:33;25.50;99.90
23237;DHT22;11787;52.018;8.570;2022-08-21T16:05:59;25.50;99.90
23237;DHT22;11787;52.018;8.570;2022-08-21T16:08:24;25.60;99.90
23237;DHT22;11787;52.018;8.570;2022-08-21T16:10:51;25.60;99.90
23237;DHT22;11787;52.018;8.570;2022-08-21T16:13:23;25.40;99.90
23237;DHT22;11787;52.018;8.570;2022-08-21T16:15:49;25.30;99.90
23237;DHT22;11787;52.018;8.570;2022-08-21T16:18:16;25.30;99.90
23237;DHT22;11787;52.018;8.570;2022-08-21T16:20:42;25.30;99.90
23237;DHT22;11787;52.018;8.570;2022-08-21T16:23:07;25.30;99.90
23237;DHT22;11787;52.018;8.570;2022-08-21T16:25:37;25.20;99.90
23237;DHT22;11787;52.018;8.570;2022-08-21T16:28:04;25.10;99.90
23237;DHT22;11787;52.018;8.570;2022-08-21T16:30:31;25.00;99.90
23237;DHT22;11787;52.018;8.570;2022-08-21T16:32:58;25.00;99.90
23237;DHT22;11787;52.018;8.570;2022-08-21T16:35:24;24.80;99.90
23237;DHT22;11787;52.018;8.570;2022-08-21T16:37:50;24.80;99.90
23237;DHT22;11787;52.018;8.570;2022-08-21T16:40:15;24.80;99.90
23237;DHT22;11787;52.018;8.570;2022-08-21T16:42:42;24.80;99.90
23237;DHT22;11787;52.018;8.570;2022-08-21T16:45:11;24.80;99.90
23237;DHT22;11787;52.018;8.570;2022-08-21T16:47:37;24.70;99.90
23237;DHT22;11787;52.018;8.570;2022-08-21T16:50:03;24.70;99.90
23237;DHT22;11787;52.018;8.570;2022-08-21T16:52:30;24.70;99.90
23237;DHT22;11787;52.018;8.570;2022-08-21T16:54:56;24.70;99.90
23237;DHT22;11787;52.018;8.570;2022-08-21T16:57:23;24.70;99.90
23237;DHT22;11787;52.018;8.570;2022-08-21T16:59:49;24.80;99.90
23237;DHT22;11787;52.018;8.570;2022-08-21T17:02:32;24.90;99.90
23237;DHT22;11787;52.018;8.570;2022-08-21T17:04:59;24.80;99.90
23237;DHT22;11787;52.018;8.570;2022-08-21T17:07:27;24.60;99.90
23237;DHT22;11787;52.018;8.570;2022-08-21T17:09:52;24.50;99.90
23237;DHT22;11787;52.018;8.570;2022-08-21T17:12:18;24.50;99.90
23237;DHT22;11787;52.018;8.570;2022-08-21T17:14:44;24.50;99.90
23237;DHT22;11787;52.018;8.570;2022-08-21T17:17:10;24.30;99.90
23237;DHT22;11787;52.018;8.570;2022-08-21T17:19:36;24.30;99.90